sensor_id;sensor_type;location;lat;lon;timestamp;pressure;altitude;pressure_sealevel;temperature;humidity
52745;BME280;38637;49.984;20.426;2023-02-22T00:00:40;99260.56;;;6.97;69.38
52745;BME280;38637;49.984;20.426;2023-02-22T00:03:14;99260.56;;;6.97;69.46
52745;BME280;38637;49.984;20.426;2023-02-22T00:05:43;99263.28;;;6.97;69.48
52745;BME280;38637;49.984;20.426;2023-02-22T00:08:14;99263.75;;;6.94;69.40
52745;BME280;38637;49.984;20.426;2023-02-22T00:10:40;99267.53;;;6.93;69.11
52745;BME280;38637;49.984;20.426;2023-02-22T00:13:07;99264.00;;;6.92;69.11
52745;BME280;38637;49.984;20.426;2023-02-22T00:15:33;99266.47;;;6.94;69.40
52745;BME280;38637;49.984;20.426;2023-02-22T00:17:59;99263.16;;;6.91;69.28
52745;BME280;38637;49.984;20.426;2023-02-22T00:20:25;99268.09;;;6.95;69.14
52745;BME280;38637;49.984;20.426;2023-02-22T00:22:52;99271.66;;;6.95;69.17
52745;BME280;38637;49.984;20.426;2023-02-22T00:25:18;99277.31;;;6.94;69.11
52745;BME280;38637;49.984;20.426;2023-02-22T00:27:45;99268.84;;;6.90;69.10
52745;BME280;38637;49.984;20.426;2023-02-22T00:30:18;99273.44;;;6.89;69.24
52745;BME280;38637;49.984;20.426;2023-02-22T00:32:45;99278.88;;;6.89;69.31
52745;BME280;38637;49.984;20.426;2023-02-22T00:35:13;99279.69;;;6.90;69.06
52745;BME280;38637;49.984;20.426;2023-02-22T00:37:38;99280.53;;;6.90;69.26
52745;BME280;38637;49.984;20.426;2023-02-22T00:40:07;99279.38;;;6.86;68.83
52745;BME280;38637;49.984;20.426;2023-02-22T00:42:33;99283.84;;;6.81;68.44
52745;BME280;38637;49.984;20.426;2023-02-22T00:44:58;99267.72;;;6.74;68.97
52745;BME280;38637;49.984;20.426;2023-02-22T00:47:23;99274.53;;;6.77;69.14
52745;BME280;38637;49.984;20.426;2023-02-22T00:49:50;99279.50;;;6.80;69.20
52745;BME280;38637;49.984;20.426;2023-02-22T00:52:15;99274.19;;;6.73;68.76
52745;BME280;38637;49.984;20.426;2023-02-22T00:54:41;99275.59;;;6.76;69.07
52745;BME280;38637;49.984;20.426;2023-02-22T00:57:06;99282.44;;;6.78;69.21
52745;BME280;38637;49.984;20.426;2023-02-22T00:59:32;99280.06;;;6.82;68.80
52745;BME280;38637;49.984;20.426;2023-02-22T01:01:57;99279.84;;;6.83;68.45
52745;BME280;38637;49.984;20.426;2023-02-22T01:04:22;99287.03;;;6.78;68.54
52745;BME280;38637;49.984;20.426;2023-02-22T01:06:48;99278.66;;;6.79;68.99
52745;BME280;38637;49.984;20.426;2023-02-22T01:09:13;99293.41;;;6.72;68.80
52745;BME280;38637;49.984;20.426;2023-02-22T01:11:38;99287.66;;;6.68;69.21
52745;BME280;38637;49.984;20.426;2023-02-22T01:14:05;99293.09;;;6.68;69.09
52745;BME280;38637;49.984;20.426;2023-02-22T01:16:34;99287.06;;;6.66;69.26
52745;BME280;38637;49.984;20.426;2023-02-22T01:18:59;99288.81;;;6.72;69.98
52745;BME280;38637;49.984;20.426;2023-02-22T01:21:25;99293.16;;;6.73;69.49
52745;BME280;38637;49.984;20.426;2023-02-22T01:23:51;99284.81;;;6.75;69.82
52745;BME280;38637;49.984;20.426;2023-02-22T01:26:16;99282.44;;;6.78;69.57
52745;BME280;38637;49.984;20.426;2023-02-22T01:28:42;99285.75;;;6.80;69.70
52745;BME280;38637;49.984;20.426;2023-02-22T01:31:07;99274.28;;;6.78;69.76
52745;BME280;38637;49.984;20.426;2023-02-22T01:33:34;99271.91;;;6.82;69.75
52745;BME280;38637;49.984;20.426;2023-02-22T01:35:59;99284.44;;;6.83;69.97
52745;BME280;38637;49.984;20.426;2023-02-22T01:38:24;99280.66;;;6.84;69.86
52745;BME280;38637;49.984;20.426;2023-02-22T01:40:50;99278.75;;;6.84;70.11
52745;BME280;38637;49.984;20.426;2023-02-22T01:43:24;99282.56;;;6.83;69.95
52745;BME280;38637;49.984;20.426;2023-02-22T01:45:56;99286.31;;;6.82;69.78
52745;BME280;38637;49.984;20.426;2023-02-22T01:53:30;99271.69;;;6.83;69.30
52745;BME280;38637;49.984;20.426;2023-02-22T01:55:57;99283.38;;;6.84;68.77
52745;BME280;38637;49.984;20.426;2023-02-22T01:58:25;99289.03;;;6.82;68.09
52745;BME280;38637;49.984;20.426;2023-02-22T02:00:51;99287.88;;;6.78;68.27
52745;BME280;38637;49.984;20.426;2023-02-22T02:03:21;99288.94;;;6.77;68.26
52745;BME280;38637;49.984;20.426;2023-02-22T02:05:49;99288.69;;;6.79;68.36
52745;BME280;38637;49.984;20.426;2023-02-22T02:11:22;99293.41;;;6.83;68.22
52745;BME280;38637;49.984;20.426;2023-02-22T02:13:50;99289.41;;;6.86;68.47
52745;BME280;38637;49.984;20.426;2023-02-22T02:16:16;99288.53;;;6.85;68.11
52745;BME280;38637;49.984;20.426;2023-02-22T02:18:41;99286.44;;;6.87;68.56
52745;BME280;38637;49.984;20.426;2023-02-22T02:24:52;99292.94;;;6.86;68.60
52745;BME280;38637;49.984;20.426;2023-02-22T02:30:00;99286.19;;;6.89;68.89
52745;BME280;38637;49.984;20.426;2023-02-22T02:32:55;99291.38;;;6.90;68.77
52745;BME280;38637;49.984;20.426;2023-02-22T02:40:48;99291.63;;;6.89;68.99
52745;BME280;38637;49.984;20.426;2023-02-22T02:46:14;99285.59;;;6.87;69.53
52745;BME280;38637;49.984;20.426;2023-02-22T02:48:48;99288.31;;;6.87;69.80
52745;BME280;38637;49.984;20.426;2023-02-22T02:51:16;99288.31;;;6.87;69.61
52745;BME280;38637;49.984;20.426;2023-02-22T02:53:46;99293.75;;;6.87;69.89
52745;BME280;38637;49.984;20.426;2023-02-22T02:56:12;99296.69;;;6.85;70.01
52745;BME280;38637;49.984;20.426;2023-02-22T02:58:43;99292.94;;;6.86;70.32
52745;BME280;38637;49.984;20.426;2023-02-22T03:01:11;99289.13;;;6.87;70.46
52745;BME280;38637;49.984;20.426;2023-02-22T03:03:50;99289.41;;;6.86;70.75
52745;BME280;38637;49.984;20.426;2023-02-22T03:06:41;99299.19;;;6.87;70.96
52745;BME280;38637;49.984;20.426;2023-02-22T03:09:37;99295.03;;;6.84;70.85
52745;BME280;38637;49.984;20.426;2023-02-22T03:25:33;99302.03;;;6.80;71.86
52745;BME280;38637;49.984;20.426;2023-02-22T03:28:03;99299.53;;;6.79;71.51
52745;BME280;38637;49.984;20.426;2023-02-22T03:30:37;99299.78;;;6.77;72.11
52745;BME280;38637;49.984;20.426;2023-02-22T03:33:08;99297.91;;;6.78;72.06
52745;BME280;38637;49.984;20.426;2023-02-22T03:35:39;99292.34;;;6.73;71.87
52745;BME280;38637;49.984;20.426;2023-02-22T03:38:08;99294.59;;;6.76;71.98
52745;BME280;38637;49.984;20.426;2023-02-22T03:40:41;99308.50;;;6.79;72.15
52745;BME280;38637;49.984;20.426;2023-02-22T03:43:21;99304.16;;;6.78;72.05
52745;BME280;38637;49.984;20.426;2023-02-22T03:45:49;99306.16;;;6.71;72.57
52745;BME280;38637;49.984;20.426;2023-02-22T03:48:35;99308.53;;;6.67;72.66
52745;BME280;38637;49.984;20.426;2023-02-22T03:51:02;99306.66;;;6.68;72.81
52745;BME280;38637;49.984;20.426;2023-02-22T03:53:29;99305.56;;;6.69;72.73
52745;BME280;38637;49.984;20.426;2023-02-22T03:55:58;99307.13;;;6.65;72.75
52745;BME280;38637;49.984;20.426;2023-02-22T03:58:26;99309.25;;;6.63;72.85
52745;BME280;38637;49.984;20.426;2023-02-22T04:00:54;99313.72;;;6.57;73.01
52745;BME280;38637;49.984;20.426;2023-02-22T04:03:20;99321.84;;;6.57;73.31
52745;BME280;38637;49.984;20.426;2023-02-22T04:05:46;99321.84;;;6.57;73.25
52745;BME280;38637;49.984;20.426;2023-02-22T04:08:11;99315.88;;;6.55;73.42
52745;BME280;38637;49.984;20.426;2023-02-22T04:10:36;99315.13;;;6.48;73.42
52745;BME280;38637;49.984;20.426;2023-02-22T04:13:02;99325.16;;;6.59;73.48
52745;BME280;38637;49.984;20.426;2023-02-22T04:15:28;99319.97;;;6.58;73.35
52745;BME280;38637;49.984;20.426;2023-02-22T04:17:53;99322.94;;;6.56;73.44
52745;BME280;38637;49.984;20.426;2023-02-22T04:20:18;99326.25;;;6.58;73.61
52745;BME280;38637;49.984;20.426;2023-02-22T04:22:44;99317.16;;;6.53;73.42
52745;BME280;38637;49.984;20.426;2023-02-22T04:25:09;99320.34;;;6.50;73.62
52745;BME280;38637;49.984;20.426;2023-02-22T04:27:35;99337.31;;;6.57;73.82
52745;BME280;38637;49.984;20.426;2023-02-22T04:30:00;99332.72;;;6.57;73.79
52745;BME280;38637;49.984;20.426;2023-02-22T04:32:26;99326.47;;;6.57;73.83
52745;BME280;38637;49.984;20.426;2023-02-22T04:34:51;99329.78;;;6.59;73.81
52745;BME280;38637;49.984;20.426;2023-02-22T04:37:16;99310.53;;;6.49;73.88
52745;BME280;38637;49.984;20.426;2023-02-22T04:39:41;99326.47;;;6.57;73.68
52745;BME280;38637;49.984;20.426;2023-02-22T04:42:07;99332.38;;;6.54;73.51
52745;BME280;38637;49.984;20.426;2023-02-22T04:44:32;99317.63;;;6.50;73.87
52745;BME280;38637;49.984;20.426;2023-02-22T04:46:58;99322.47;;;6.48;74.11
52745;BME280;38637;49.984;20.426;2023-02-22T04:49:23;99327.66;;;6.49;73.84
52745;BME280;38637;49.984;20.426;2023-02-22T04:51:48;99327.66;;;6.49;73.98
52745;BME280;38637;49.984;20.426;2023-02-22T04:54:14;99316.34;;;6.40;73.57
52745;BME280;38637;49.984;20.426;2023-02-22T04:56:42;99329.06;;;6.40;74.11
52745;BME280;38637;49.984;20.426;2023-02-22T04:59:07;99332.47;;;6.35;74.27
52745;BME280;38637;49.984;20.426;2023-02-22T05:01:34;99332.47;;;6.35;74.25
52745;BME280;38637;49.984;20.426;2023-02-22T05:04:03;99325.88;;;6.31;74.35
52745;BME280;38637;49.984;20.426;2023-02-22T05:06:29;99336.84;;;6.36;74.18
52745;BME280;38637;49.984;20.426;2023-02-22T05:08:54;99330.84;;;6.34;74.07
52745;BME280;38637;49.984;20.426;2023-02-22T05:11:19;99328.47;;;6.38;74.18
52745;BME280;38637;49.984;20.426;2023-02-22T05:13:46;99325.75;;;6.38;73.91
52745;BME280;38637;49.984;20.426;2023-02-22T05:16:11;99329.53;;;6.37;73.99
52745;BME280;38637;49.984;20.426;2023-02-22T05:18:36;99337.44;;;6.38;73.95
52745;BME280;38637;49.984;20.426;2023-02-22T05:21:02;99338.72;;;6.36;73.88
52745;BME280;38637;49.984;20.426;2023-02-22T05:23:28;99329.75;;;6.35;73.88
52745;BME280;38637;49.984;20.426;2023-02-22T05:25:53;99348.28;;;6.38;74.05
52745;BME280;38637;49.984;20.426;2023-02-22T05:28:18;99348.88;;;6.40;74.29
52745;BME280;38637;49.984;20.426;2023-02-22T05:30:43;99345.69;;;6.43;74.06
52745;BME280;38637;49.984;20.426;2023-02-22T05:33:09;99343.81;;;6.44;74.05
52745;BME280;38637;49.984;20.426;2023-02-22T05:35:35;99345.69;;;6.43;73.99
52745;BME280;38637;49.984;20.426;2023-02-22T05:38:01;99341.91;;;6.44;73.92
52745;BME280;38637;49.984;20.426;2023-02-22T05:40:28;99357.38;;;6.44;74.27
52745;BME280;38637;49.984;20.426;2023-02-22T05:42:55;99349.22;;;6.44;74.35
52745;BME280;38637;49.984;20.426;2023-02-22T05:45:24;99353.59;;;6.45;74.32
52745;BME280;38637;49.984;20.426;2023-02-22T05:47:50;99360.69;;;6.46;74.24
52745;BME280;38637;49.984;20.426;2023-02-22T05:50:16;99361.25;;;6.48;74.36
52745;BME280;38637;49.984;20.426;2023-02-22T05:52:41;99366.69;;;6.48;74.22
52745;BME280;38637;49.984;20.426;2023-02-22T05:55:08;99361.25;;;6.48;74.20
52745;BME280;38637;49.984;20.426;2023-02-22T05:57:34;99368.34;;;6.49;74.30
52745;BME280;38637;49.984;20.426;2023-02-22T05:59:59;99370.22;;;6.49;74.40
52745;BME280;38637;49.984;20.426;2023-02-22T06:02:25;99375.63;;;6.49;74.21
52745;BME280;38637;49.984;20.426;2023-02-22T06:04:50;99377.31;;;6.50;74.28
52745;BME280;38637;49.984;20.426;2023-02-22T06:07:15;99373.78;;;6.49;74.55
52745;BME280;38637;49.984;20.426;2023-02-22T06:09:41;99384.16;;;6.52;74.29
52745;BME280;38637;49.984;20.426;2023-02-22T06:12:07;99382.84;;;6.55;74.62
52745;BME280;38637;49.984;20.426;2023-02-22T06:14:33;99377.91;;;6.40;74.56
52745;BME280;38637;49.984;20.426;2023-02-22T06:16:58;99390.59;;;6.39;75.01
52745;BME280;38637;49.984;20.426;2023-02-22T06:19:25;99388.97;;;6.38;75.21
52745;BME280;38637;49.984;20.426;2023-02-22T06:21:52;99397.44;;;6.42;75.16
52745;BME280;38637;49.984;20.426;2023-02-22T06:24:18;99405.47;;;6.49;74.99
52745;BME280;38637;49.984;20.426;2023-02-22T06:26:43;99408.09;;;6.55;74.89
52745;BME280;38637;49.984;20.426;2023-02-22T06:29:09;99397.59;;;6.59;74.69
52745;BME280;38637;49.984;20.426;2023-02-22T06:31:34;99397.69;;;6.64;74.18
52745;BME280;38637;49.984;20.426;2023-02-22T06:34:01;99398.09;;;6.67;74.04
52745;BME280;38637;49.984;20.426;2023-02-22T06:36:26;99406.56;;;6.71;74.12
52745;BME280;38637;49.984;20.426;2023-02-22T06:38:52;99405.50;;;6.72;74.24
52745;BME280;38637;49.984;20.426;2023-02-22T06:41:17;99416.25;;;6.79;74.17
52745;BME280;38637;49.984;20.426;2023-02-22T06:43:42;99419.91;;;6.84;74.15
52745;BME280;38637;49.984;20.426;2023-02-22T06:46:11;99410.69;;;6.85;74.70
52745;BME280;38637;49.984;20.426;2023-02-22T06:48:37;99409.28;;;6.83;74.58
52745;BME280;38637;49.984;20.426;2023-02-22T06:51:05;99419.91;;;6.96;74.11
52745;BME280;38637;49.984;20.426;2023-02-22T06:53:32;99413.88;;;6.94;73.83
52745;BME280;38637;49.984;20.426;2023-02-22T06:55:57;99420.59;;;7.03;73.41
52745;BME280;38637;49.984;20.426;2023-02-22T06:58:23;99419.06;;;7.07;73.27
52745;BME280;38637;49.984;20.426;2023-02-22T07:00:48;99425.69;;;7.11;73.39
52745;BME280;38637;49.984;20.426;2023-02-22T07:03:13;99435.25;;;7.14;73.01
52745;BME280;38637;49.984;20.426;2023-02-22T07:05:40;99425.41;;;7.13;72.91
52745;BME280;38637;49.984;20.426;2023-02-22T07:08:06;99427.91;;;7.14;73.24
52745;BME280;38637;49.984;20.426;2023-02-22T07:10:33;99427.66;;;7.16;73.03
52745;BME280;38637;49.984;20.426;2023-02-22T07:12:59;99426.38;;;7.19;72.65
52745;BME280;38637;49.984;20.426;2023-02-22T07:15:27;99427.78;;;7.21;72.50
52745;BME280;38637;49.984;20.426;2023-02-22T07:17:52;99432.25;;;7.27;71.61
52745;BME280;38637;49.984;20.426;2023-02-22T07:20:19;99432.13;;;7.34;71.07
52745;BME280;38637;49.984;20.426;2023-02-22T07:22:46;99432.94;;;7.34;69.26
52745;BME280;38637;49.984;20.426;2023-02-22T07:25:12;99433.88;;;7.40;69.83
52745;BME280;38637;49.984;20.426;2023-02-22T07:27:38;99430.00;;;7.48;69.58
52745;BME280;38637;49.984;20.426;2023-02-22T07:30:06;99433.38;;;7.55;69.83
52745;BME280;38637;49.984;20.426;2023-02-22T07:32:32;99430.78;;;7.60;69.64
52745;BME280;38637;49.984;20.426;2023-02-22T07:34:57;99433.50;;;7.60;68.88
52745;BME280;38637;49.984;20.426;2023-02-22T07:37:22;99429.22;;;7.64;68.11
52745;BME280;38637;49.984;20.426;2023-02-22T07:39:48;99435.81;;;7.68;67.98
52745;BME280;38637;49.984;20.426;2023-02-22T07:42:13;99430.28;;;7.75;67.92
52745;BME280;38637;49.984;20.426;2023-02-22T07:44:38;99428.34;;;7.87;67.66
52745;BME280;38637;49.984;20.426;2023-02-22T07:47:04;99426.78;;;7.91;66.69
52745;BME280;38637;49.984;20.426;2023-02-22T07:49:29;99439.00;;;8.05;66.76
52745;BME280;38637;49.984;20.426;2023-02-22T07:51:54;99436.78;;;8.02;64.77
52745;BME280;38637;49.984;20.426;2023-02-22T07:54:19;99435.22;;;8.06;65.59
52745;BME280;38637;49.984;20.426;2023-02-22T07:56:48;99419.88;;;8.00;63.71
52745;BME280;38637;49.984;20.426;2023-02-22T07:59:14;99433.25;;;8.02;62.93
52745;BME280;38637;49.984;20.426;2023-02-22T08:01:40;99433.81;;;8.04;63.13
52745;BME280;38637;49.984;20.426;2023-02-22T08:04:06;99441.28;;;7.97;62.23
52745;BME280;38637;49.984;20.426;2023-02-22T08:06:31;99435.59;;;7.98;62.29
52745;BME280;38637;49.984;20.426;2023-02-22T08:08:57;99440.44;;;8.08;62.27
52745;BME280;38637;49.984;20.426;2023-02-22T08:11:23;99445.28;;;8.23;62.22
52745;BME280;38637;49.984;20.426;2023-02-22T08:13:49;99439.25;;;8.33;61.13
52745;BME280;38637;49.984;20.426;2023-02-22T08:16:14;99435.97;;;8.19;59.68
52745;BME280;38637;49.984;20.426;2023-02-22T08:18:39;99442.53;;;8.35;59.55
52745;BME280;38637;49.984;20.426;2023-02-22T08:21:05;99434.19;;;8.24;58.83
52745;BME280;38637;49.984;20.426;2023-02-22T08:23:30;99445.81;;;8.37;58.63
52745;BME280;38637;49.984;20.426;2023-02-22T08:26:04;99443.31;;;8.47;58.78
52745;BME280;38637;49.984;20.426;2023-02-22T08:28:30;99446.72;;;8.54;59.18
52745;BME280;38637;49.984;20.426;2023-02-22T08:30:55;99441.66;;;8.63;60.34
52745;BME280;38637;49.984;20.426;2023-02-22T08:33:21;99449.81;;;8.63;59.62
52745;BME280;38637;49.984;20.426;2023-02-22T08:35:47;99448.56;;;8.37;60.03
52745;BME280;38637;49.984;20.426;2023-02-22T08:38:26;99432.41;;;8.47;59.43
52745;BME280;38637;49.984;20.426;2023-02-22T08:40:51;99457.25;;;8.67;58.79
52745;BME280;38637;49.984;20.426;2023-02-22T08:43:18;99451.31;;;8.70;58.25
52745;BME280;38637;49.984;20.426;2023-02-22T08:45:44;99424.03;;;8.48;56.31
52745;BME280;38637;49.984;20.426;2023-02-22T08:48:09;99446.31;;;8.79;56.48
52745;BME280;38637;49.984;20.426;2023-02-22T08:50:35;99452.66;;;8.85;56.25
52745;BME280;38637;49.984;20.426;2023-02-22T08:53:02;99451.41;;;8.92;57.73
52745;BME280;38637;49.984;20.426;2023-02-22T08:55:32;99445.72;;;8.94;58.56
52745;BME280;38637;49.984;20.426;2023-02-22T08:57:58;99440.09;;;9.01;56.12
52745;BME280;38637;49.984;20.426;2023-02-22T09:00:25;99453.47;;;8.85;56.97
52745;BME280;38637;49.984;20.426;2023-02-22T09:02:51;99464.44;;;8.73;56.27
52745;BME280;38637;49.984;20.426;2023-02-22T09:05:17;99452.56;;;8.80;55.19
52745;BME280;38637;49.984;20.426;2023-02-22T09:07:43;99450.34;;;8.77;56.34
52745;BME280;38637;49.984;20.426;2023-02-22T09:10:17;99462.47;;;8.86;56.58
52745;BME280;38637;49.984;20.426;2023-02-22T09:12:43;99456.13;;;8.97;57.43
52745;BME280;38637;49.984;20.426;2023-02-22T09:15:09;99457.22;;;9.18;57.01
52745;BME280;38637;49.984;20.426;2023-02-22T09:17:35;99468.19;;;9.23;56.17
52745;BME280;38637;49.984;20.426;2023-02-22T09:20:03;99465.75;;;9.22;55.15
52745;BME280;38637;49.984;20.426;2023-02-22T09:22:28;99462.78;;;9.06;53.51
52745;BME280;38637;49.984;20.426;2023-02-22T09:24:54;99462.63;;;9.13;54.33
52745;BME280;38637;49.984;20.426;2023-02-22T09:27:19;99462.50;;;9.25;54.65
52745;BME280;38637;49.984;20.426;2023-02-22T09:29:47;99459.34;;;9.33;55.57
52745;BME280;38637;49.984;20.426;2023-02-22T09:32:13;99456.69;;;9.38;53.69
52745;BME280;38637;49.984;20.426;2023-02-22T09:34:42;99447.81;;;9.48;54.08
52745;BME280;38637;49.984;20.426;2023-02-22T09:37:10;99452.66;;;9.62;54.13
52745;BME280;38637;49.984;20.426;2023-02-22T09:39:36;99451.22;;;9.77;54.03
52745;BME280;38637;49.984;20.426;2023-02-22T09:44:55;99440.34;;;9.82;53.73
52745;BME280;38637;49.984;20.426;2023-02-22T09:47:37;99448.53;;;9.82;51.49
52745;BME280;38637;49.984;20.426;2023-02-22T09:50:12;99451.94;;;9.94;52.45
52745;BME280;38637;49.984;20.426;2023-02-22T09:53:11;99451.28;;;10.09;53.02
52745;BME280;38637;49.984;20.426;2023-02-22T09:55:46;99458.19;;;10.17;52.41
52745;BME280;38637;49.984;20.426;2023-02-22T09:58:41;99451.06;;;10.16;52.83
52745;BME280;38637;49.984;20.426;2023-02-22T10:06:32;99451.31;;;9.65;52.08
52745;BME280;38637;49.984;20.426;2023-02-22T10:09:00;99456.44;;;9.39;51.99
52745;BME280;38637;49.984;20.426;2023-02-22T10:20:20;99434.28;;;9.53;52.85
52745;BME280;38637;49.984;20.426;2023-02-22T10:25:26;99437.75;;;9.48;52.52
52745;BME280;38637;49.984;20.426;2023-02-22T10:28:26;99439.88;;;9.24;53.54
52745;BME280;38637;49.984;20.426;2023-02-22T10:31:02;99441.78;;;9.24;53.14
52745;BME280;38637;49.984;20.426;2023-02-22T10:33:31;99435.88;;;9.10;53.06
52745;BME280;38637;49.984;20.426;2023-02-22T10:35:58;99432.38;;;9.14;53.05
52745;BME280;38637;49.984;20.426;2023-02-22T10:38:28;99430.25;;;9.16;53.74
52745;BME280;38637;49.984;20.426;2023-02-22T10:43:39;99428.44;;;9.44;52.54
52745;BME280;38637;49.984;20.426;2023-02-22T10:46:07;99422.03;;;9.55;52.10
52745;BME280;38637;49.984;20.426;2023-02-22T10:48:35;99420.53;;;9.64;51.08
52745;BME280;38637;49.984;20.426;2023-02-22T10:51:04;99419.84;;;9.79;50.98
52745;BME280;38637;49.984;20.426;2023-02-22T10:53:32;99421.81;;;9.84;49.38
52745;BME280;38637;49.984;20.426;2023-02-22T10:56:17;99415.59;;;9.88;50.58
52745;BME280;38637;49.984;20.426;2023-02-22T11:01:25;99420.22;;;9.88;50.81
52745;BME280;38637;49.984;20.426;2023-02-22T11:06:38;99420.69;;;9.80;51.15
52745;BME280;38637;49.984;20.426;2023-02-22T11:09:14;99416.56;;;9.33;50.58
52745;BME280;38637;49.984;20.426;2023-02-22T11:11:44;99426.03;;;9.48;51.36
52745;BME280;38637;49.984;20.426;2023-02-22T11:14:11;99425.19;;;9.47;50.76
52745;BME280;38637;49.984;20.426;2023-02-22T11:16:40;99410.97;;;9.67;49.59
52745;BME280;38637;49.984;20.426;2023-02-22T11:19:15;99415.25;;;10.07;49.80
52745;BME280;38637;49.984;20.426;2023-02-22T11:21:45;99412.41;;;9.97;47.75
52745;BME280;38637;49.984;20.426;2023-02-22T11:24:13;99411.31;;;9.98;47.59
52745;BME280;38637;49.984;20.426;2023-02-22T11:26:45;99410.66;;;9.85;48.45
52745;BME280;38637;49.984;20.426;2023-02-22T11:29:33;99413.19;;;9.92;48.51
52745;BME280;38637;49.984;20.426;2023-02-22T11:32:22;99410.47;;;9.92;47.68
52745;BME280;38637;49.984;20.426;2023-02-22T11:34:49;99407.59;;;9.82;47.91
52745;BME280;38637;49.984;20.426;2023-02-22T11:37:35;99420.50;;;9.86;48.15
52745;BME280;38637;49.984;20.426;2023-02-22T11:40:21;99413.84;;;9.77;49.81
52745;BME280;38637;49.984;20.426;2023-02-22T11:43:14;99417.72;;;9.59;50.74
52745;BME280;38637;49.984;20.426;2023-02-22T11:45:56;99416.59;;;9.55;48.70
52745;BME280;38637;49.984;20.426;2023-02-22T11:48:29;99419.03;;;9.57;48.74
52745;BME280;38637;49.984;20.426;2023-02-22T11:51:26;99414.41;;;9.79;48.67
52745;BME280;38637;49.984;20.426;2023-02-22T11:56:39;99408.75;;;10.13;48.75
52745;BME280;38637;49.984;20.426;2023-02-22T11:59:35;99404.16;;;10.13;47.84
52745;BME280;38637;49.984;20.426;2023-02-22T12:02:44;99403.88;;;10.15;47.87
52745;BME280;38637;49.984;20.426;2023-02-22T12:05:26;99406.19;;;10.01;47.29
52745;BME280;38637;49.984;20.426;2023-02-22T12:08:19;99404.50;;;9.95;47.66
52745;BME280;38637;49.984;20.426;2023-02-22T12:11:28;99400.38;;;9.93;48.37
52745;BME280;38637;49.984;20.426;2023-02-22T12:14:08;99402.84;;;9.94;48.95
52745;BME280;38637;49.984;20.426;2023-02-22T12:19:36;99393.16;;;9.81;50.04
52745;BME280;38637;49.984;20.426;2023-02-22T12:24:39;99392.91;;;9.83;50.97
52745;BME280;38637;49.984;20.426;2023-02-22T12:27:19;99398.16;;;9.89;49.76
52745;BME280;38637;49.984;20.426;2023-02-22T12:29:50;99398.50;;;9.71;49.84
52745;BME280;38637;49.984;20.426;2023-02-22T12:32:27;99395.94;;;9.86;50.32
52745;BME280;38637;49.984;20.426;2023-02-22T12:35:15;99393.31;;;9.97;49.72
52745;BME280;38637;49.984;20.426;2023-02-22T12:40:53;99389.34;;;10.09;49.69
52745;BME280;38637;49.984;20.426;2023-02-22T12:53:40;99394.38;;;9.69;49.65
52745;BME280;38637;49.984;20.426;2023-02-22T12:56:21;99402.06;;;9.72;49.88
52745;BME280;38637;49.984;20.426;2023-02-22T12:58:58;99386.81;;;9.76;49.17
52745;BME280;38637;49.984;20.426;2023-02-22T13:01:33;99393.66;;;9.78;49.53
52745;BME280;38637;49.984;20.426;2023-02-22T13:03:59;99396.66;;;9.77;49.28
52745;BME280;38637;49.984;20.426;2023-02-22T13:07:02;99394.56;;;9.84;48.71
52745;BME280;38637;49.984;20.426;2023-02-22T13:12:08;99386.97;;;9.91;49.03
52745;BME280;38637;49.984;20.426;2023-02-22T13:15:06;99389.19;;;9.94;47.99
52745;BME280;38637;49.984;20.426;2023-02-22T13:17:41;99390.34;;;9.98;48.82
52745;BME280;38637;49.984;20.426;2023-02-22T13:26:12;99402.22;;;9.87;48.17
52745;BME280;38637;49.984;20.426;2023-02-22T13:28:51;99388.03;;;9.63;48.69
52745;BME280;38637;49.984;20.426;2023-02-22T13:37:28;99393.22;;;9.20;48.71
52745;BME280;38637;49.984;20.426;2023-02-22T13:53:22;99402.28;;;9.70;49.32
52745;BME280;38637;49.984;20.426;2023-02-22T13:55:55;99400.22;;;9.77;48.39
52745;BME280;38637;49.984;20.426;2023-02-22T13:58:22;99395.38;;;9.84;48.34
52745;BME280;38637;49.984;20.426;2023-02-22T14:00:56;99397.06;;;9.90;48.42
52745;BME280;38637;49.984;20.426;2023-02-22T14:03:39;99391.03;;;9.88;47.76
52745;BME280;38637;49.984;20.426;2023-02-22T14:06:37;99394.03;;;9.87;48.22
52745;BME280;38637;49.984;20.426;2023-02-22T14:11:58;99397.63;;;9.65;48.18
52745;BME280;38637;49.984;20.426;2023-02-22T14:14:24;99400.34;;;9.65;49.05
52745;BME280;38637;49.984;20.426;2023-02-22T14:17:14;99394.97;;;9.71;48.94
52745;BME280;38637;49.984;20.426;2023-02-22T14:19:40;99395.97;;;9.64;48.26
52745;BME280;38637;49.984;20.426;2023-02-22T14:22:06;99400.94;;;9.68;48.20
52745;BME280;38637;49.984;20.426;2023-02-22T14:24:47;99391.38;;;9.70;47.86
52745;BME280;38637;49.984;20.426;2023-02-22T14:27:13;99394.69;;;9.72;47.95
52745;BME280;38637;49.984;20.426;2023-02-22T14:29:52;99395.56;;;9.78;48.06
52745;BME280;38637;49.984;20.426;2023-02-22T14:32:18;99396.09;;;9.75;47.47
52745;BME280;38637;49.984;20.426;2023-02-22T14:34:52;99398.63;;;9.59;47.65
52745;BME280;38637;49.984;20.426;2023-02-22T14:37:22;99397.63;;;9.43;48.24
52745;BME280;38637;49.984;20.426;2023-02-22T14:40:01;99399.66;;;9.31;48.28
52745;BME280;38637;49.984;20.426;2023-02-22T14:42:40;99406.81;;;9.15;48.29
52745;BME280;38637;49.984;20.426;2023-02-22T14:47:42;99404.19;;;8.87;48.58
52745;BME280;38637;49.984;20.426;2023-02-22T14:50:18;99397.63;;;8.66;49.05
52745;BME280;38637;49.984;20.426;2023-02-22T14:52:56;99410.31;;;8.43;49.99
52745;BME280;38637;49.984;20.426;2023-02-22T14:55:24;99410.84;;;8.28;48.99
52745;BME280;38637;49.984;20.426;2023-02-22T14:58:06;99414.47;;;8.17;50.45
52745;BME280;38637;49.984;20.426;2023-02-22T15:03:04;99413.31;;;8.13;50.77
52745;BME280;38637;49.984;20.426;2023-02-22T15:05:36;99412.59;;;8.18;50.80
52745;BME280;38637;49.984;20.426;2023-02-22T15:08:05;99416.72;;;8.20;50.36
52745;BME280;38637;49.984;20.426;2023-02-22T15:13:03;99415.63;;;8.21;50.67
52745;BME280;38637;49.984;20.426;2023-02-22T15:15:46;99417.03;;;8.24;50.78
52745;BME280;38637;49.984;20.426;2023-02-22T15:20:46;99414.22;;;8.19;50.21